sensor_id;sensor_type;location;lat;lon;timestamp;temperature;humidity
18412;DHT22;27097;51.738;19.472;2023-02-02T00:01:16;20.10;74.90
18412;DHT22;27097;51.738;19.472;2023-02-02T00:03:43;20.10;74.80
18412;DHT22;27097;51.738;19.472;2023-02-02T00:06:10;20.10;75.60
18412;DHT22;27097;51.738;19.472;2023-02-02T00:08:37;20.10;75.30
18412;DHT22;27097;51.738;19.472;2023-02-02T00:11:05;20.10;74.50
18412;DHT22;27097;51.738;19.472;2023-02-02T00:13:33;20.20;74.70
18412;DHT22;27097;51.738;19.472;2023-02-02T00:19:01;20.20;74.30
18412;DHT22;27097;51.738;19.472;2023-02-02T00:21:29;20.10;74.50
18412;DHT22;27097;51.738;19.472;2023-02-02T00:23:56;20.10;74.40
18412;DHT22;27097;51.738;19.472;2023-02-02T00:26:23;20.20;74.90
18412;DHT22;27097;51.738;19.472;2023-02-02T00:28:51;20.20;74.40
18412;DHT22;27097;51.738;19.472;2023-02-02T00:31:18;20.20;74.70
18412;DHT22;27097;51.738;19.472;2023-02-02T00:33:46;20.20;74.80
18412;DHT22;27097;51.738;19.472;2023-02-02T00:36:12;20.20;74.50
18412;DHT22;27097;51.738;19.472;2023-02-02T00:38:39;20.20;74.80
18412;DHT22;27097;51.738;19.472;2023-02-02T00:41:06;20.20;73.60
18412;DHT22;27097;51.738;19.472;2023-02-02T00:43:33;20.20;74.30
18412;DHT22;27097;51.738;19.472;2023-02-02T00:46:02;20.20;74.40
18412;DHT22;27097;51.738;19.472;2023-02-02T00:48:28;20.20;74.30
18412;DHT22;27097;51.738;19.472;2023-02-02T00:50:54;20.20;73.90
18412;DHT22;27097;51.738;19.472;2023-02-02T00:53:21;20.20;74.30
18412;DHT22;27097;51.738;19.472;2023-02-02T00:55:48;20.20;73.90
18412;DHT22;27097;51.738;19.472;2023-02-02T00:58:15;20.20;74.80
18412;DHT22;27097;51.738;19.472;2023-02-02T01:00:42;20.20;73.70
18412;DHT22;27097;51.738;19.472;2023-02-02T01:03:10;20.20;74.00
18412;DHT22;27097;51.738;19.472;2023-02-02T01:05:37;20.20;74.00
18412;DHT22;27097;51.738;19.472;2023-02-02T01:08:05;20.20;73.90
18412;DHT22;27097;51.738;19.472;2023-02-02T01:10:32;20.20;74.00
18412;DHT22;27097;51.738;19.472;2023-02-02T01:13:00;20.20;73.80
18412;DHT22;27097;51.738;19.472;2023-02-02T01:15:27;20.20;74.10
18412;DHT22;27097;51.738;19.472;2023-02-02T01:17:55;20.20;73.90
18412;DHT22;27097;51.738;19.472;2023-02-02T01:20:23;20.20;73.30
18412;DHT22;27097;51.738;19.472;2023-02-02T01:22:50;20.20;73.80
18412;DHT22;27097;51.738;19.472;2023-02-02T01:25:17;20.20;73.80
18412;DHT22;27097;51.738;19.472;2023-02-02T01:27:44;20.20;74.10
18412;DHT22;27097;51.738;19.472;2023-02-02T01:30:12;20.20;74.00
18412;DHT22;27097;51.738;19.472;2023-02-02T01:32:39;20.20;73.90
18412;DHT22;27097;51.738;19.472;2023-02-02T01:35:06;20.20;73.90
18412;DHT22;27097;51.738;19.472;2023-02-02T01:37:37;20.20;73.90
18412;DHT22;27097;51.738;19.472;2023-02-02T01:40:05;20.20;73.90
18412;DHT22;27097;51.738;19.472;2023-02-02T01:42:32;20.20;73.80
18412;DHT22;27097;51.738;19.472;2023-02-02T01:45:22;20.20;73.80
18412;DHT22;27097;51.738;19.472;2023-02-02T01:47:52;20.20;74.00
18412;DHT22;27097;51.738;19.472;2023-02-02T01:50:22;20.20;73.90
18412;DHT22;27097;51.738;19.472;2023-02-02T01:52:53;20.20;73.90
18412;DHT22;27097;51.738;19.472;2023-02-02T01:55:22;20.20;73.40
18412;DHT22;27097;51.738;19.472;2023-02-02T01:57:52;20.20;74.30
18412;DHT22;27097;51.738;19.472;2023-02-02T02:00:20;20.20;73.60
18412;DHT22;27097;51.738;19.472;2023-02-02T02:02:51;20.20;73.60
18412;DHT22;27097;51.738;19.472;2023-02-02T02:05:24;20.20;73.40
18412;DHT22;27097;51.738;19.472;2023-02-02T02:07:57;20.20;73.60
18412;DHT22;27097;51.738;19.472;2023-02-02T02:10:26;20.20;74.00
18412;DHT22;27097;51.738;19.472;2023-02-02T02:12:53;20.20;73.60
18412;DHT22;27097;51.738;19.472;2023-02-02T02:15:20;20.20;73.90
18412;DHT22;27097;51.738;19.472;2023-02-02T02:18:15;20.20;73.60
18412;DHT22;27097;51.738;19.472;2023-02-02T02:21:24;20.20;73.80
18412;DHT22;27097;51.738;19.472;2023-02-02T02:24:41;20.20;73.90
18412;DHT22;27097;51.738;19.472;2023-02-02T02:31:01;20.20;73.00
18412;DHT22;27097;51.738;19.472;2023-02-02T02:33:37;20.20;73.20
18412;DHT22;27097;51.738;19.472;2023-02-02T02:36:14;20.20;73.10
18412;DHT22;27097;51.738;19.472;2023-02-02T02:38:50;20.20;73.30
18412;DHT22;27097;51.738;19.472;2023-02-02T02:41:21;20.20;73.50
18412;DHT22;27097;51.738;19.472;2023-02-02T02:43:54;20.20;73.60
18412;DHT22;27097;51.738;19.472;2023-02-02T02:46:22;20.20;73.60
18412;DHT22;27097;51.738;19.472;2023-02-02T02:48:50;20.20;73.50
18412;DHT22;27097;51.738;19.472;2023-02-02T02:51:40;20.20;73.50
18412;DHT22;27097;51.738;19.472;2023-02-02T02:54:08;20.20;73.10
18412;DHT22;27097;51.738;19.472;2023-02-02T02:56:43;20.20;74.00
18412;DHT22;27097;51.738;19.472;2023-02-02T02:59:20;20.10;73.90
18412;DHT22;27097;51.738;19.472;2023-02-02T03:02:03;20.20;73.70
18412;DHT22;27097;51.738;19.472;2023-02-02T03:04:39;20.20;73.80
18412;DHT22;27097;51.738;19.472;2023-02-02T03:07:19;20.20;74.00
18412;DHT22;27097;51.738;19.472;2023-02-02T03:09:48;20.20;73.20
18412;DHT22;27097;51.738;19.472;2023-02-02T03:12:17;20.20;73.70
18412;DHT22;27097;51.738;19.472;2023-02-02T03:14:44;20.20;73.90
18412;DHT22;27097;51.738;19.472;2023-02-02T03:17:10;20.20;73.40
18412;DHT22;27097;51.738;19.472;2023-02-02T03:19:39;20.20;73.40
18412;DHT22;27097;51.738;19.472;2023-02-02T03:22:05;20.20;73.40
18412;DHT22;27097;51.738;19.472;2023-02-02T03:24:32;20.20;73.40
18412;DHT22;27097;51.738;19.472;2023-02-02T03:26:59;20.20;73.60
18412;DHT22;27097;51.738;19.472;2023-02-02T03:29:26;20.20;74.00
18412;DHT22;27097;51.738;19.472;2023-02-02T03:31:53;20.20;73.20
18412;DHT22;27097;51.738;19.472;2023-02-02T03:34:20;20.20;73.10
18412;DHT22;27097;51.738;19.472;2023-02-02T03:36:48;20.20;73.50
18412;DHT22;27097;51.738;19.472;2023-02-02T03:39:15;20.20;73.30
18412;DHT22;27097;51.738;19.472;2023-02-02T03:41:42;20.20;73.20
18412;DHT22;27097;51.738;19.472;2023-02-02T03:44:09;20.20;73.40
18412;DHT22;27097;51.738;19.472;2023-02-02T03:46:35;20.20;73.40
18412;DHT22;27097;51.738;19.472;2023-02-02T03:49:02;20.20;73.30
18412;DHT22;27097;51.738;19.472;2023-02-02T03:51:29;20.20;73.70
18412;DHT22;27097;51.738;19.472;2023-02-02T03:53:57;20.20;73.50
18412;DHT22;27097;51.738;19.472;2023-02-02T03:56:24;20.20;72.90
18412;DHT22;27097;51.738;19.472;2023-02-02T03:58:51;20.20;73.20
18412;DHT22;27097;51.738;19.472;2023-02-02T04:01:25;20.20;73.40
18412;DHT22;27097;51.738;19.472;2023-02-02T04:03:53;20.20;73.20
18412;DHT22;27097;51.738;19.472;2023-02-02T04:06:20;20.20;73.10
18412;DHT22;27097;51.738;19.472;2023-02-02T04:08:47;20.20;73.80
18412;DHT22;27097;51.738;19.472;2023-02-02T04:11:15;20.20;73.40
18412;DHT22;27097;51.738;19.472;2023-02-02T04:13:42;20.20;73.40
18412;DHT22;27097;51.738;19.472;2023-02-02T04:16:10;20.20;73.40
18412;DHT22;27097;51.738;19.472;2023-02-02T04:18:37;20.20;73.10
18412;DHT22;27097;51.738;19.472;2023-02-02T04:21:04;20.20;73.10
18412;DHT22;27097;51.738;19.472;2023-02-02T04:23:32;20.20;73.60
18412;DHT22;27097;51.738;19.472;2023-02-02T04:25:58;20.20;73.50
18412;DHT22;27097;51.738;19.472;2023-02-02T04:28:27;20.20;73.10
18412;DHT22;27097;51.738;19.472;2023-02-02T04:30:55;20.20;73.50
18412;DHT22;27097;51.738;19.472;2023-02-02T04:33:23;20.20;73.30
18412;DHT22;27097;51.738;19.472;2023-02-02T04:35:50;20.20;73.80
18412;DHT22;27097;51.738;19.472;2023-02-02T04:38:17;20.20;73.50
18412;DHT22;27097;51.738;19.472;2023-02-02T04:40:46;20.20;73.50
18412;DHT22;27097;51.738;19.472;2023-02-02T04:43:13;20.20;73.50
18412;DHT22;27097;51.738;19.472;2023-02-02T04:45:42;20.20;74.00
18412;DHT22;27097;51.738;19.472;2023-02-02T04:48:09;20.20;73.60
18412;DHT22;27097;51.738;19.472;2023-02-02T04:50:36;20.20;73.90
18412;DHT22;27097;51.738;19.472;2023-02-02T04:53:03;20.20;74.10
18412;DHT22;27097;51.738;19.472;2023-02-02T04:55:34;20.20;74.50
18412;DHT22;27097;51.738;19.472;2023-02-02T04:58:01;20.20;74.00
18412;DHT22;27097;51.738;19.472;2023-02-02T05:00:27;20.20;73.90
18412;DHT22;27097;51.738;19.472;2023-02-02T05:02:56;20.20;74.00
18412;DHT22;27097;51.738;19.472;2023-02-02T05:05:22;20.20;73.10
18412;DHT22;27097;51.738;19.472;2023-02-02T05:07:49;20.20;74.00
18412;DHT22;27097;51.738;19.472;2023-02-02T05:10:16;20.20;73.70
18412;DHT22;27097;51.738;19.472;2023-02-02T05:12:43;20.20;73.70
18412;DHT22;27097;51.738;19.472;2023-02-02T05:15:10;20.20;73.70
18412;DHT22;27097;51.738;19.472;2023-02-02T05:17:37;20.20;74.50
18412;DHT22;27097;51.738;19.472;2023-02-02T05:20:06;20.20;75.00
18412;DHT22;27097;51.738;19.472;2023-02-02T05:22:33;20.20;74.40
18412;DHT22;27097;51.738;19.472;2023-02-02T05:25:00;20.20;74.30
18412;DHT22;27097;51.738;19.472;2023-02-02T05:27:27;20.20;74.00
18412;DHT22;27097;51.738;19.472;2023-02-02T05:29:54;20.20;74.40
18412;DHT22;27097;51.738;19.472;2023-02-02T05:32:21;20.20;74.10
18412;DHT22;27097;51.738;19.472;2023-02-02T05:34:48;20.20;73.30
18412;DHT22;27097;51.738;19.472;2023-02-02T05:37:16;20.20;73.90
18412;DHT22;27097;51.738;19.472;2023-02-02T05:39:43;20.20;73.90
18412;DHT22;27097;51.738;19.472;2023-02-02T05:42:09;20.20;73.40
18412;DHT22;27097;51.738;19.472;2023-02-02T05:44:36;20.20;73.90
18412;DHT22;27097;51.738;19.472;2023-02-02T05:47:03;20.20;74.20
18412;DHT22;27097;51.738;19.472;2023-02-02T05:49:30;20.20;73.80
18412;DHT22;27097;51.738;19.472;2023-02-02T05:51:57;20.20;73.80
18412;DHT22;27097;51.738;19.472;2023-02-02T05:54:26;20.20;74.40
18412;DHT22;27097;51.738;19.472;2023-02-02T05:56:53;20.20;73.50
18412;DHT22;27097;51.738;19.472;2023-02-02T05:59:20;20.20;73.90
18412;DHT22;27097;51.738;19.472;2023-02-02T06:01:48;20.20;73.20
18412;DHT22;27097;51.738;19.472;2023-02-02T06:04:15;20.20;74.00
18412;DHT22;27097;51.738;19.472;2023-02-02T06:06:42;20.20;73.80
18412;DHT22;27097;51.738;19.472;2023-02-02T06:09:09;20.20;73.40
18412;DHT22;27097;51.738;19.472;2023-02-02T06:11:37;20.20;72.70
18412;DHT22;27097;51.738;19.472;2023-02-02T06:14:05;20.20;71.20
18412;DHT22;27097;51.738;19.472;2023-02-02T06:16:32;20.20;71.80
18412;DHT22;27097;51.738;19.472;2023-02-02T06:18:58;20.20;71.00
18412;DHT22;27097;51.738;19.472;2023-02-02T06:21:25;20.20;71.00
18412;DHT22;27097;51.738;19.472;2023-02-02T06:23:56;20.20;69.60
18412;DHT22;27097;51.738;19.472;2023-02-02T06:26:23;20.20;71.70
18412;DHT22;27097;51.738;19.472;2023-02-02T06:28:53;20.10;71.00
18412;DHT22;27097;51.738;19.472;2023-02-02T06:31:23;20.10;70.80
18412;DHT22;27097;51.738;19.472;2023-02-02T06:33:53;20.10;70.10
18412;DHT22;27097;51.738;19.472;2023-02-02T06:36:21;20.10;70.00
18412;DHT22;27097;51.738;19.472;2023-02-02T06:38:48;20.10;69.40
18412;DHT22;27097;51.738;19.472;2023-02-02T06:41:16;20.10;70.10
18412;DHT22;27097;51.738;19.472;2023-02-02T06:43:42;20.10;69.50
18412;DHT22;27097;51.738;19.472;2023-02-02T06:46:11;20.10;69.20
18412;DHT22;27097;51.738;19.472;2023-02-02T06:48:38;20.10;69.80
18412;DHT22;27097;51.738;19.472;2023-02-02T06:51:05;20.10;70.00
18412;DHT22;27097;51.738;19.472;2023-02-02T06:53:33;20.10;70.00
18412;DHT22;27097;51.738;19.472;2023-02-02T06:56:02;20.10;68.30
18412;DHT22;27097;51.738;19.472;2023-02-02T06:58:30;20.10;69.20
18412;DHT22;27097;51.738;19.472;2023-02-02T07:01:00;20.10;69.00
18412;DHT22;27097;51.738;19.472;2023-02-02T07:03:31;20.10;66.90
18412;DHT22;27097;51.738;19.472;2023-02-02T07:05:58;20.10;68.20
18412;DHT22;27097;51.738;19.472;2023-02-02T07:08:25;20.10;66.30
18412;DHT22;27097;51.738;19.472;2023-02-02T07:10:51;20.00;66.50
18412;DHT22;27097;51.738;19.472;2023-02-02T07:13:18;20.00;66.80
18412;DHT22;27097;51.738;19.472;2023-02-02T07:15:45;20.00;66.80
18412;DHT22;27097;51.738;19.472;2023-02-02T07:18:13;20.00;66.90
18412;DHT22;27097;51.738;19.472;2023-02-02T07:20:41;20.00;68.00
18412;DHT22;27097;51.738;19.472;2023-02-02T07:23:08;20.00;68.20
18412;DHT22;27097;51.738;19.472;2023-02-02T07:25:35;20.00;66.90
18412;DHT22;27097;51.738;19.472;2023-02-02T07:28:02;20.00;65.20
18412;DHT22;27097;51.738;19.472;2023-02-02T07:30:28;19.90;66.00
18412;DHT22;27097;51.738;19.472;2023-02-02T07:32:55;19.90;65.30
18412;DHT22;27097;51.738;19.472;2023-02-02T07:35:22;19.90;67.00
18412;DHT22;27097;51.738;19.472;2023-02-02T07:37:54;19.90;67.50
18412;DHT22;27097;51.738;19.472;2023-02-02T07:40:22;19.90;66.60
18412;DHT22;27097;51.738;19.472;2023-02-02T07:42:49;19.90;67.00
18412;DHT22;27097;51.738;19.472;2023-02-02T07:45:16;19.90;66.00
18412;DHT22;27097;51.738;19.472;2023-02-02T07:47:44;19.90;65.80
18412;DHT22;27097;51.738;19.472;2023-02-02T07:50:11;19.90;65.70
18412;DHT22;27097;51.738;19.472;2023-02-02T07:52:38;19.90;65.10
18412;DHT22;27097;51.738;19.472;2023-02-02T07:55:07;19.90;65.10
18412;DHT22;27097;51.738;19.472;2023-02-02T07:57:36;19.80;65.10
18412;DHT22;27097;51.738;19.472;2023-02-02T08:00:04;19.90;64.80
18412;DHT22;27097;51.738;19.472;2023-02-02T08:02:31;19.90;64.90
18412;DHT22;27097;51.738;19.472;2023-02-02T08:04:57;19.90;65.30
18412;DHT22;27097;51.738;19.472;2023-02-02T08:07:24;19.90;64.50
18412;DHT22;27097;51.738;19.472;2023-02-02T08:09:51;19.90;66.00
18412;DHT22;27097;51.738;19.472;2023-02-02T08:12:21;19.80;67.20
18412;DHT22;27097;51.738;19.472;2023-02-02T08:14:49;19.90;67.20
18412;DHT22;27097;51.738;19.472;2023-02-02T08:17:15;19.90;66.90
18412;DHT22;27097;51.738;19.472;2023-02-02T08:19:43;19.90;67.90
18412;DHT22;27097;51.738;19.472;2023-02-02T08:22:10;19.90;68.30
18412;DHT22;27097;51.738;19.472;2023-02-02T08:24:36;19.90;67.90
18412;DHT22;27097;51.738;19.472;2023-02-02T08:27:05;19.90;68.40
18412;DHT22;27097;51.738;19.472;2023-02-02T08:29:34;19.90;68.00
18412;DHT22;27097;51.738;19.472;2023-02-02T08:32:01;19.90;67.60
18412;DHT22;27097;51.738;19.472;2023-02-02T08:34:28;20.00;67.50
18412;DHT22;27097;51.738;19.472;2023-02-02T08:36:55;19.90;67.60
18412;DHT22;27097;51.738;19.472;2023-02-02T08:39:22;20.00;67.40
18412;DHT22;27097;51.738;19.472;2023-02-02T08:41:49;20.00;67.00
18412;DHT22;27097;51.738;19.472;2023-02-02T08:44:16;20.00;67.00
18412;DHT22;27097;51.738;19.472;2023-02-02T08:46:44;19.90;66.70
18412;DHT22;27097;51.738;19.472;2023-02-02T08:49:11;20.00;66.30
18412;DHT22;27097;51.738;19.472;2023-02-02T08:51:38;19.90;66.70
18412;DHT22;27097;51.738;19.472;2023-02-02T08:54:06;19.90;65.80
18412;DHT22;27097;51.738;19.472;2023-02-02T08:56:33;20.00;65.50
18412;DHT22;27097;51.738;19.472;2023-02-02T08:59:00;20.00;66.10
18412;DHT22;27097;51.738;19.472;2023-02-02T09:01:31;20.00;65.00
18412;DHT22;27097;51.738;19.472;2023-02-02T09:04:00;19.90;65.60
18412;DHT22;27097;51.738;19.472;2023-02-02T09:06:31;20.00;64.50
18412;DHT22;27097;51.738;19.472;2023-02-02T09:08:58;19.90;65.50
18412;DHT22;27097;51.738;19.472;2023-02-02T09:11:25;19.90;65.80
18412;DHT22;27097;51.738;19.472;2023-02-02T09:13:54;19.90;65.60
18412;DHT22;27097;51.738;19.472;2023-02-02T09:16:22;20.00;65.00
18412;DHT22;27097;51.738;19.472;2023-02-02T09:18:49;19.90;64.10
18412;DHT22;27097;51.738;19.472;2023-02-02T09:21:18;19.90;64.40
18412;DHT22;27097;51.738;19.472;2023-02-02T09:23:46;19.90;63.60
18412;DHT22;27097;51.738;19.472;2023-02-02T09:26:14;19.90;63.90
18412;DHT22;27097;51.738;19.472;2023-02-02T09:28:44;19.90;64.60
18412;DHT22;27097;51.738;19.472;2023-02-02T09:31:11;19.90;63.90
18412;DHT22;27097;51.738;19.472;2023-02-02T09:33:39;19.90;64.80
18412;DHT22;27097;51.738;19.472;2023-02-02T09:36:07;19.90;64.70
18412;DHT22;27097;51.738;19.472;2023-02-02T09:38:36;19.90;65.20
18412;DHT22;27097;51.738;19.472;2023-02-02T09:41:25;19.90;62.90
18412;DHT22;27097;51.738;19.472;2023-02-02T09:44:02;19.90;62.90
18412;DHT22;27097;51.738;19.472;2023-02-02T09:46:39;19.90;63.10
18412;DHT22;27097;51.738;19.472;2023-02-02T09:49:14;19.90;63.10
18412;DHT22;27097;51.738;19.472;2023-02-02T09:51:47;19.90;63.80
18412;DHT22;27097;51.738;19.472;2023-02-02T09:54:23;19.90;63.80
18412;DHT22;27097;51.738;19.472;2023-02-02T09:56:54;19.90;62.70
18412;DHT22;27097;51.738;19.472;2023-02-02T09:59:27;19.90;63.70
18412;DHT22;27097;51.738;19.472;2023-02-02T10:01:57;19.90;63.50
18412;DHT22;27097;51.738;19.472;2023-02-02T10:04:32;19.90;63.50
18412;DHT22;27097;51.738;19.472;2023-02-02T10:07:06;19.90;63.80
18412;DHT22;27097;51.738;19.472;2023-02-02T10:09:39;19.90;63.20
18412;DHT22;27097;51.738;19.472;2023-02-02T10:12:18;19.90;63.50
18412;DHT22;27097;51.738;19.472;2023-02-02T10:14:51;19.90;63.60
18412;DHT22;27097;51.738;19.472;2023-02-02T10:17:34;19.90;63.40
18412;DHT22;27097;51.738;19.472;2023-02-02T10:20:16;19.90;63.10
18412;DHT22;27097;51.738;19.472;2023-02-02T10:22:45;19.90;63.40
18412;DHT22;27097;51.738;19.472;2023-02-02T10:25:15;19.90;63.50
18412;DHT22;27097;51.738;19.472;2023-02-02T10:27:50;19.90;63.60
18412;DHT22;27097;51.738;19.472;2023-02-02T10:30:23;19.90;63.50
18412;DHT22;27097;51.738;19.472;2023-02-02T10:33:00;19.90;63.40
18412;DHT22;27097;51.738;19.472;2023-02-02T10:35:35;19.90;63.20
18412;DHT22;27097;51.738;19.472;2023-02-02T10:38:10;19.90;63.20
18412;DHT22;27097;51.738;19.472;2023-02-02T10:40:50;19.90;63.40
18412;DHT22;27097;51.738;19.472;2023-02-02T10:43:50;19.90;63.20
18412;DHT22;27097;51.738;19.472;2023-02-02T10:46:22;19.90;63.40
18412;DHT22;27097;51.738;19.472;2023-02-02T10:48:57;19.90;62.90
18412;DHT22;27097;51.738;19.472;2023-02-02T10:51:27;19.90;63.10
18412;DHT22;27097;51.738;19.472;2023-02-02T10:53:57;19.90;63.00
18412;DHT22;27097;51.738;19.472;2023-02-02T10:56:32;19.90;62.60
18412;DHT22;27097;51.738;19.472;2023-02-02T10:59:05;19.90;63.20
18412;DHT22;27097;51.738;19.472;2023-02-02T11:01:32;19.90;63.30
18412;DHT22;27097;51.738;19.472;2023-02-02T11:03:59;19.90;63.30
18412;DHT22;27097;51.738;19.472;2023-02-02T11:06:44;19.90;63.10
18412;DHT22;27097;51.738;19.472;2023-02-02T11:09:19;19.90;62.90
18412;DHT22;27097;51.738;19.472;2023-02-02T11:11:50;19.90;63.10
18412;DHT22;27097;51.738;19.472;2023-02-02T11:14:24;19.90;62.70
18412;DHT22;27097;51.738;19.472;2023-02-02T11:17:00;19.80;63.00
18412;DHT22;27097;51.738;19.472;2023-02-02T11:19:29;19.90;62.90
18412;DHT22;27097;51.738;19.472;2023-02-02T11:21:58;19.90;63.90
18412;DHT22;27097;51.738;19.472;2023-02-02T11:24:27;19.90;63.40
18412;DHT22;27097;51.738;19.472;2023-02-02T11:26:58;19.90;63.40
18412;DHT22;27097;51.738;19.472;2023-02-02T11:29:28;19.80;63.20
18412;DHT22;27097;51.738;19.472;2023-02-02T11:31:55;19.90;63.10
18412;DHT22;27097;51.738;19.472;2023-02-02T11:34:23;19.90;63.10
18412;DHT22;27097;51.738;19.472;2023-02-02T11:37:02;19.80;63.00
18412;DHT22;27097;51.738;19.472;2023-02-02T11:39:29;19.80;63.20
18412;DHT22;27097;51.738;19.472;2023-02-02T11:42:06;19.90;63.10
18412;DHT22;27097;51.738;19.472;2023-02-02T11:44:34;19.90;63.30
18412;DHT22;27097;51.738;19.472;2023-02-02T11:47:04;19.90;63.70
18412;DHT22;27097;51.738;19.472;2023-02-02T11:49:35;19.90;63.60
18412;DHT22;27097;51.738;19.472;2023-02-02T11:52:05;19.90;63.70
18412;DHT22;27097;51.738;19.472;2023-02-02T11:54:34;19.90;63.40
18412;DHT22;27097;51.738;19.472;2023-02-02T11:57:06;19.90;64.10
18412;DHT22;27097;51.738;19.472;2023-02-02T11:59:35;19.90;63.40
18412;DHT22;27097;51.738;19.472;2023-02-02T12:02:30;19.90;63.50
18412;DHT22;27097;51.738;19.472;2023-02-02T12:05:32;19.90;62.30
18412;DHT22;27097;51.738;19.472;2023-02-02T12:07:59;19.90;62.60
18412;DHT22;27097;51.738;19.472;2023-02-02T12:10:30;19.90;62.90
18412;DHT22;27097;51.738;19.472;2023-02-02T12:13:07;19.90;62.70
18412;DHT22;27097;51.738;19.472;2023-02-02T12:15:45;19.90;62.90
18412;DHT22;27097;51.738;19.472;2023-02-02T12:18:24;19.90;62.90
18412;DHT22;27097;51.738;19.472;2023-02-02T12:20:59;19.90;62.80
18412;DHT22;27097;51.738;19.472;2023-02-02T12:23:47;19.90;63.10
18412;DHT22;27097;51.738;19.472;2023-02-02T12:26:24;19.90;63.00
18412;DHT22;27097;51.738;19.472;2023-02-02T12:29:05;19.80;62.80
18412;DHT22;27097;51.738;19.472;2023-02-02T12:31:45;19.80;62.80
18412;DHT22;27097;51.738;19.472;2023-02-02T12:34:21;19.90;62.90
18412;DHT22;27097;51.738;19.472;2023-02-02T12:36:54;19.80;62.40
18412;DHT22;27097;51.738;19.472;2023-02-02T12:39:32;19.90;62.60
18412;DHT22;27097;51.738;19.472;2023-02-02T12:45:17;19.90;62.40
18412;DHT22;27097;51.738;19.472;2023-02-02T12:47:54;19.90;62.10
18412;DHT22;27097;51.738;19.472;2023-02-02T12:50:30;19.90;62.50
18412;DHT22;27097;51.738;19.472;2023-02-02T12:53:19;19.90;62.50
18412;DHT22;27097;51.738;19.472;2023-02-02T12:55:56;19.90;62.10
18412;DHT22;27097;51.738;19.472;2023-02-02T12:58:30;19.80;61.70
18412;DHT22;27097;51.738;19.472;2023-02-02T13:01:31;19.90;62.10
18412;DHT22;27097;51.738;19.472;2023-02-02T13:04:18;19.90;62.20
18412;DHT22;27097;51.738;19.472;2023-02-02T13:07:24;19.90;62.20
18412;DHT22;27097;51.738;19.472;2023-02-02T13:10:06;19.90;61.80
18412;DHT22;27097;51.738;19.472;2023-02-02T13:12:38;19.90;61.80
18412;DHT22;27097;51.738;19.472;2023-02-02T13:15:09;19.90;60.80
18412;DHT22;27097;51.738;19.472;2023-02-02T13:17:41;19.90;60.50
18412;DHT22;27097;51.738;19.472;2023-02-02T13:20:19;19.90;61.80
18412;DHT22;27097;51.738;19.472;2023-02-02T13:22:49;19.90;62.30
18412;DHT22;27097;51.738;19.472;2023-02-02T13:25:20;19.90;63.80
18412;DHT22;27097;51.738;19.472;2023-02-02T13:27:49;19.90;62.90
18412;DHT22;27097;51.738;19.472;2023-02-02T13:30:26;19.90;62.40
18412;DHT22;27097;51.738;19.472;2023-02-02T13:32:59;19.90;62.10
18412;DHT22;27097;51.738;19.472;2023-02-02T13:35:32;19.90;62.90
18412;DHT22;27097;51.738;19.472;2023-02-02T13:38:04;19.90;62.70
18412;DHT22;27097;51.738;19.472;2023-02-02T13:40:37;19.90;62.70
18412;DHT22;27097;51.738;19.472;2023-02-02T13:43:15;19.90;62.80
18412;DHT22;27097;51.738;19.472;2023-02-02T13:45:51;19.90;62.90
18412;DHT22;27097;51.738;19.472;2023-02-02T13:48:30;19.90;63.10
18412;DHT22;27097;51.738;19.472;2023-02-02T13:57:02;20.00;62.90
18412;DHT22;27097;51.738;19.472;2023-02-02T13:59:50;20.00;62.90
18412;DHT22;27097;51.738;19.472;2023-02-02T14:02:20;20.00;62.30
18412;DHT22;27097;51.738;19.472;2023-02-02T14:04:56;20.00;62.20
18412;DHT22;27097;51.738;19.472;2023-02-02T14:07:35;20.00;62.20
18412;DHT22;27097;51.738;19.472;2023-02-02T14:10:03;19.90;62.00
18412;DHT22;27097;51.738;19.472;2023-02-02T14:12:33;20.00;62.20
18412;DHT22;27097;51.738;19.472;2023-02-02T14:15:01;19.90;61.80
18412;DHT22;27097;51.738;19.472;2023-02-02T14:17:51;20.00;62.60
18412;DHT22;27097;51.738;19.472;2023-02-02T14:20:48;20.00;62.00
18412;DHT22;27097;51.738;19.472;2023-02-02T14:23:49;19.90;62.40
18412;DHT22;27097;51.738;19.472;2023-02-02T14:26:19;19.90;62.40
18412;DHT22;27097;51.738;19.472;2023-02-02T14:29:35;19.90;62.70
18412;DHT22;27097;51.738;19.472;2023-02-02T14:32:28;20.00;65.10
18412;DHT22;27097;51.738;19.472;2023-02-02T14:34:57;20.00;66.70
18412;DHT22;27097;51.738;19.472;2023-02-02T14:37:40;20.00;68.90
18412;DHT22;27097;51.738;19.472;2023-02-02T14:40:27;19.90;68.40
18412;DHT22;27097;51.738;19.472;2023-02-02T14:43:07;19.90;70.00
18412;DHT22;27097;51.738;19.472;2023-02-02T14:46:25;19.90;69.60
18412;DHT22;27097;51.738;19.472;2023-02-02T14:49:13;19.90;69.40
18412;DHT22;27097;51.738;19.472;2023-02-02T14:51:52;19.90;67.50
18412;DHT22;27097;51.738;19.472;2023-02-02T14:54:29;19.90;66.50
18412;DHT22;27097;51.738;19.472;2023-02-02T14:57:05;19.90;67.40
18412;DHT22;27097;51.738;19.472;2023-02-02T14:59:46;19.90;68.20
18412;DHT22;27097;51.738;19.472;2023-02-02T15:02:16;19.90;68.10
18412;DHT22;27097;51.738;19.472;2023-02-02T15:04:45;19.90;68.20
18412;DHT22;27097;51.738;19.472;2023-02-02T15:07:37;19.90;68.50
18412;DHT22;27097;51.738;19.472;2023-02-02T15:10:08;20.00;68.30
18412;DHT22;27097;51.738;19.472;2023-02-02T15:12:39;20.00;66.00
18412;DHT22;27097;51.738;19.472;2023-02-02T15:15:17;20.00;67.70
18412;DHT22;27097;51.738;19.472;2023-02-02T15:17:58;20.00;65.90
18412;DHT22;27097;51.738;19.472;2023-02-02T15:20:28;19.90;65.70
18412;DHT22;27097;51.738;19.472;2023-02-02T15:23:01;19.90;67.00
18412;DHT22;27097;51.738;19.472;2023-02-02T15:25:32;19.90;67.20
18412;DHT22;27097;51.738;19.472;2023-02-02T15:28:09;20.00;68.40
18412;DHT22;27097;51.738;19.472;2023-02-02T15:30:42;20.00;68.50
18412;DHT22;27097;51.738;19.472;2023-02-02T15:33:20;20.00;68.40
18412;DHT22;27097;51.738;19.472;2023-02-02T15:35:48;20.00;68.50
18412;DHT22;27097;51.738;19.472;2023-02-02T15:38:21;20.00;68.60
18412;DHT22;27097;51.738;19.472;2023-02-02T15:40:53;20.00;68.40
18412;DHT22;27097;51.738;19.472;2023-02-02T15:43:20;20.10;67.50
18412;DHT22;27097;51.738;19.472;2023-02-02T15:45:51;20.10;67.80
18412;DHT22;27097;51.738;19.472;2023-02-02T15:48:21;20.10;67.20
18412;DHT22;27097;51.738;19.472;2023-02-02T15:50:51;20.10;66.30
18412;DHT22;27097;51.738;19.472;2023-02-02T15:53:24;20.10;66.50
18412;DHT22;27097;51.738;19.472;2023-02-02T15:55:52;20.10;66.50
18412;DHT22;27097;51.738;19.472;2023-02-02T15:58:22;20.10;66.40